sensor_id;sensor_type;location;lat;lon;timestamp;P1;durP1;ratioP1;P2;durP2;ratioP2
53521;SDS011;39398;48.382;9.802;2024-01-06T00:00:37;14.63;;;9.25;;
53521;SDS011;39398;48.382;9.802;2024-01-06T00:05:40;13.40;;;8.48;;
53521;SDS011;39398;48.382;9.802;2024-01-06T00:10:41;12.77;;;8.05;;
53521;SDS011;39398;48.382;9.802;2024-01-06T00:15:43;9.57;;;7.88;;
53521;SDS011;39398;48.382;9.802;2024-01-06T00:20:46;16.02;;;7.45;;
53521;SDS011;39398;48.382;9.802;2024-01-06T00:25:47;16.50;;;8.45;;
53521;SDS011;39398;48.382;9.802;2024-01-06T00:30:49;17.25;;;8.27;;
53521;SDS011;39398;48.382;9.802;2024-01-06T00:35:52;16.55;;;8.93;;
53521;SDS011;39398;48.382;9.802;2024-01-06T00:40:54;12.07;;;7.68;;
53521;SDS011;39398;48.382;9.802;2024-01-06T00:45:55;5.57;;;4.10;;
53521;SDS011;39398;48.382;9.802;2024-01-06T00:50:58;13.77;;;4.53;;
53521;SDS011;39398;48.382;9.802;2024-01-06T00:56:00;11.85;;;6.43;;
53521;SDS011;39398;48.382;9.802;2024-01-06T01:01:01;7.70;;;4.75;;
53521;SDS011;39398;48.382;9.802;2024-01-06T01:06:06;6.85;;;4.00;;
53521;SDS011;39398;48.382;9.802;2024-01-06T01:11:07;9.05;;;5.80;;
53521;SDS011;39398;48.382;9.802;2024-01-06T01:16:09;5.28;;;3.60;;
53521;SDS011;39398;48.382;9.802;2024-01-06T01:21:12;6.97;;;2.70;;
53521;SDS011;39398;48.382;9.802;2024-01-06T01:26:13;11.90;;;5.60;;
53521;SDS011;39398;48.382;9.802;2024-01-06T01:31:15;9.40;;;2.92;;
53521;SDS011;39398;48.382;9.802;2024-01-06T01:36:18;8.07;;;5.15;;
53521;SDS011;39398;48.382;9.802;2024-01-06T01:41:20;11.15;;;5.78;;
53521;SDS011;39398;48.382;9.802;2024-01-06T01:46:21;10.75;;;5.20;;
53521;SDS011;39398;48.382;9.802;2024-01-06T01:51:26;7.03;;;3.15;;
53521;SDS011;39398;48.382;9.802;2024-01-06T01:56:30;11.93;;;6.27;;
53521;SDS011;39398;48.382;9.802;2024-01-06T02:01:33;9.82;;;5.72;;
53521;SDS011;39398;48.382;9.802;2024-01-06T02:06:36;9.25;;;4.10;;
53521;SDS011;39398;48.382;9.802;2024-01-06T02:11:38;13.07;;;6.00;;
53521;SDS011;39398;48.382;9.802;2024-01-06T02:16:40;12.05;;;6.38;;
53521;SDS011;39398;48.382;9.802;2024-01-06T02:21:43;17.25;;;6.32;;
53521;SDS011;39398;48.382;9.802;2024-01-06T02:26:46;10.68;;;5.07;;
53521;SDS011;39398;48.382;9.802;2024-01-06T02:31:48;17.83;;;5.78;;
53521;SDS011;39398;48.382;9.802;2024-01-06T02:36:50;12.20;;;5.00;;
53521;SDS011;39398;48.382;9.802;2024-01-06T02:41:53;10.23;;;4.90;;
53521;SDS011;39398;48.382;9.802;2024-01-06T02:46:54;10.65;;;5.88;;
53521;SDS011;39398;48.382;9.802;2024-01-06T02:51:56;10.10;;;5.32;;
53521;SDS011;39398;48.382;9.802;2024-01-06T02:56:59;6.72;;;2.92;;
53521;SDS011;39398;48.382;9.802;2024-01-06T03:02:01;11.75;;;3.88;;
53521;SDS011;39398;48.382;9.802;2024-01-06T03:07:03;7.22;;;3.92;;
53521;SDS011;39398;48.382;9.802;2024-01-06T03:12:06;11.95;;;4.80;;
53521;SDS011;39398;48.382;9.802;2024-01-06T03:17:08;8.65;;;3.92;;
53521;SDS011;39398;48.382;9.802;2024-01-06T03:22:09;8.13;;;3.83;;
53521;SDS011;39398;48.382;9.802;2024-01-06T03:27:12;9.77;;;4.03;;
53521;SDS011;39398;48.382;9.802;2024-01-06T03:32:14;7.47;;;3.40;;
53521;SDS011;39398;48.382;9.802;2024-01-06T03:37:15;10.55;;;4.68;;
53521;SDS011;39398;48.382;9.802;2024-01-06T03:42:18;10.10;;;3.05;;
53521;SDS011;39398;48.382;9.802;2024-01-06T03:47:20;7.50;;;3.50;;
53521;SDS011;39398;48.382;9.802;2024-01-06T03:52:22;9.57;;;3.70;;
53521;SDS011;39398;48.382;9.802;2024-01-06T03:57:25;6.72;;;2.90;;
53521;SDS011;39398;48.382;9.802;2024-01-06T04:02:27;8.82;;;3.45;;
53521;SDS011;39398;48.382;9.802;2024-01-06T04:07:28;7.78;;;3.45;;
53521;SDS011;39398;48.382;9.802;2024-01-06T04:12:31;11.93;;;3.55;;
53521;SDS011;39398;48.382;9.802;2024-01-06T04:17:33;6.28;;;3.75;;
53521;SDS011;39398;48.382;9.802;2024-01-06T04:22:34;9.30;;;4.22;;
53521;SDS011;39398;48.382;9.802;2024-01-06T04:27:37;8.73;;;3.60;;
53521;SDS011;39398;48.382;9.802;2024-01-06T04:32:39;11.10;;;4.38;;
53521;SDS011;39398;48.382;9.802;2024-01-06T04:37:40;11.57;;;4.45;;
53521;SDS011;39398;48.382;9.802;2024-01-06T04:42:43;10.70;;;4.40;;
53521;SDS011;39398;48.382;9.802;2024-01-06T04:47:45;8.38;;;4.25;;
53521;SDS011;39398;48.382;9.802;2024-01-06T04:52:47;8.57;;;4.35;;
53521;SDS011;39398;48.382;9.802;2024-01-06T04:57:50;8.93;;;4.60;;
53521;SDS011;39398;48.382;9.802;2024-01-06T05:02:52;6.78;;;3.90;;
53521;SDS011;39398;48.382;9.802;2024-01-06T05:07:53;8.75;;;3.35;;
53521;SDS011;39398;48.382;9.802;2024-01-06T05:12:56;6.97;;;3.17;;
53521;SDS011;39398;48.382;9.802;2024-01-06T05:17:58;12.40;;;3.65;;
53521;SDS011;39398;48.382;9.802;2024-01-06T05:22:59;8.95;;;3.22;;
53521;SDS011;39398;48.382;9.802;2024-01-06T05:28:02;8.30;;;3.55;;
53521;SDS011;39398;48.382;9.802;2024-01-06T05:33:04;10.20;;;3.08;;
53521;SDS011;39398;48.382;9.802;2024-01-06T05:38:06;5.20;;;2.97;;
53521;SDS011;39398;48.382;9.802;2024-01-06T05:43:09;12.48;;;2.80;;
53521;SDS011;39398;48.382;9.802;2024-01-06T05:48:11;7.65;;;2.85;;
53521;SDS011;39398;48.382;9.802;2024-01-06T05:53:13;6.70;;;3.10;;
53521;SDS011;39398;48.382;9.802;2024-01-06T05:58:16;7.30;;;3.97;;
53521;SDS011;39398;48.382;9.802;2024-01-06T06:03:17;7.97;;;3.95;;
53521;SDS011;39398;48.382;9.802;2024-01-06T06:08:19;9.25;;;3.88;;
53521;SDS011;39398;48.382;9.802;2024-01-06T06:13:22;7.60;;;3.75;;
53521;SDS011;39398;48.382;9.802;2024-01-06T06:18:23;8.88;;;3.17;;
53521;SDS011;39398;48.382;9.802;2024-01-06T06:23:25;9.25;;;3.50;;
53521;SDS011;39398;48.382;9.802;2024-01-06T06:28:28;9.32;;;3.15;;
53521;SDS011;39398;48.382;9.802;2024-01-06T06:33:30;10.63;;;3.47;;
53521;SDS011;39398;48.382;9.802;2024-01-06T06:38:32;13.00;;;4.45;;
53521;SDS011;39398;48.382;9.802;2024-01-06T06:43:35;11.15;;;5.90;;
53521;SDS011;39398;48.382;9.802;2024-01-06T06:48:36;14.02;;;6.88;;
53521;SDS011;39398;48.382;9.802;2024-01-06T06:53:38;10.38;;;5.95;;
53521;SDS011;39398;48.382;9.802;2024-01-06T06:58:41;9.95;;;5.82;;
53521;SDS011;39398;48.382;9.802;2024-01-06T07:03:42;7.88;;;5.20;;
53521;SDS011;39398;48.382;9.802;2024-01-06T07:08:44;8.80;;;4.45;;
53521;SDS011;39398;48.382;9.802;2024-01-06T07:13:47;7.72;;;5.07;;
53521;SDS011;39398;48.382;9.802;2024-01-06T07:18:49;8.38;;;4.78;;
53521;SDS011;39398;48.382;9.802;2024-01-06T07:23:50;9.50;;;5.18;;
53521;SDS011;39398;48.382;9.802;2024-01-06T07:28:53;12.93;;;5.57;;
53521;SDS011;39398;48.382;9.802;2024-01-06T07:33:55;12.88;;;6.03;;
53521;SDS011;39398;48.382;9.802;2024-01-06T07:38:57;12.93;;;6.88;;
53521;SDS011;39398;48.382;9.802;2024-01-06T07:44:00;14.15;;;6.45;;
53521;SDS011;39398;48.382;9.802;2024-01-06T07:49:01;11.02;;;6.60;;
53521;SDS011;39398;48.382;9.802;2024-01-06T07:54:03;9.13;;;5.30;;
53521;SDS011;39398;48.382;9.802;2024-01-06T07:59:06;17.25;;;10.77;;
53521;SDS011;39398;48.382;9.802;2024-01-06T08:04:08;44.80;;;21.83;;
53521;SDS011;39398;48.382;9.802;2024-01-06T08:09:10;23.65;;;13.00;;
53521;SDS011;39398;48.382;9.802;2024-01-06T08:14:12;16.27;;;8.75;;
53521;SDS011;39398;48.382;9.802;2024-01-06T08:19:14;13.00;;;6.55;;
53521;SDS011;39398;48.382;9.802;2024-01-06T08:24:16;14.30;;;7.55;;
53521;SDS011;39398;48.382;9.802;2024-01-06T08:29:19;22.73;;;13.73;;
53521;SDS011;39398;48.382;9.802;2024-01-06T08:34:20;12.40;;;7.22;;
53521;SDS011;39398;48.382;9.802;2024-01-06T08:39:22;17.52;;;8.38;;
53521;SDS011;39398;48.382;9.802;2024-01-06T08:44:25;11.43;;;5.63;;
53521;SDS011;39398;48.382;9.802;2024-01-06T08:49:27;12.32;;;4.70;;
53521;SDS011;39398;48.382;9.802;2024-01-06T08:54:29;8.55;;;5.70;;
53521;SDS011;39398;48.382;9.802;2024-01-06T08:59:31;12.00;;;7.40;;
53521;SDS011;39398;48.382;9.802;2024-01-06T09:04:33;16.75;;;8.63;;
53521;SDS011;39398;48.382;9.802;2024-01-06T09:09:35;20.48;;;12.60;;
53521;SDS011;39398;48.382;9.802;2024-01-06T09:14:38;29.33;;;13.10;;
53521;SDS011;39398;48.382;9.802;2024-01-06T09:19:39;26.17;;;15.20;;
53521;SDS011;39398;48.382;9.802;2024-01-06T09:24:41;232.95;;;21.98;;
53521;SDS011;39398;48.382;9.802;2024-01-06T09:29:44;167.65;;;22.10;;
53521;SDS011;39398;48.382;9.802;2024-01-06T09:34:46;29.80;;;14.30;;
53521;SDS011;39398;48.382;9.802;2024-01-06T09:39:48;28.77;;;15.73;;
53521;SDS011;39398;48.382;9.802;2024-01-06T09:44:51;36.72;;;17.75;;
53521;SDS011;39398;48.382;9.802;2024-01-06T09:49:52;10.52;;;6.78;;
53521;SDS011;39398;48.382;9.802;2024-01-06T09:54:55;9.02;;;4.55;;
53521;SDS011;39398;48.382;9.802;2024-01-06T09:59:59;4.65;;;2.63;;
53521;SDS011;39398;48.382;9.802;2024-01-06T10:05:02;5.85;;;2.53;;
53521;SDS011;39398;48.382;9.802;2024-01-06T10:10:05;3.05;;;2.70;;
53521;SDS011;39398;48.382;9.802;2024-01-06T10:15:11;5.90;;;4.13;;
53521;SDS011;39398;48.382;9.802;2024-01-06T10:20:13;4.75;;;2.40;;
53521;SDS011;39398;48.382;9.802;2024-01-06T10:25:14;3.85;;;2.45;;
53521;SDS011;39398;48.382;9.802;2024-01-06T10:30:17;2.95;;;1.70;;
53521;SDS011;39398;48.382;9.802;2024-01-06T10:35:19;4.03;;;2.25;;
53521;SDS011;39398;48.382;9.802;2024-01-06T10:40:21;4.15;;;2.30;;
53521;SDS011;39398;48.382;9.802;2024-01-06T10:45:24;1.88;;;1.17;;
53521;SDS011;39398;48.382;9.802;2024-01-06T10:50:26;4.80;;;1.90;;
53521;SDS011;39398;48.382;9.802;2024-01-06T10:55:29;3.17;;;1.98;;
53521;SDS011;39398;48.382;9.802;2024-01-06T11:00:34;3.17;;;2.03;;
53521;SDS011;39398;48.382;9.802;2024-01-06T11:05:36;4.68;;;2.00;;
53521;SDS011;39398;48.382;9.802;2024-01-06T11:10:40;5.93;;;2.10;;
53521;SDS011;39398;48.382;9.802;2024-01-06T11:15:44;5.47;;;2.28;;
53521;SDS011;39398;48.382;9.802;2024-01-06T11:26:19;6.53;;;2.00;;
53521;SDS011;39398;48.382;9.802;2024-01-06T11:31:22;4.40;;;2.10;;
53521;SDS011;39398;48.382;9.802;2024-01-06T11:36:24;6.35;;;2.10;;
53521;SDS011;39398;48.382;9.802;2024-01-06T11:41:45;4.53;;;1.88;;
53521;SDS011;39398;48.382;9.802;2024-01-06T11:46:51;2.70;;;2.10;;
53521;SDS011;39398;48.382;9.802;2024-01-06T11:51:54;3.35;;;1.80;;
53521;SDS011;39398;48.382;9.802;2024-01-06T11:56:57;2.95;;;1.95;;
53521;SDS011;39398;48.382;9.802;2024-01-06T12:02:00;2.58;;;2.20;;
53521;SDS011;39398;48.382;9.802;2024-01-06T12:07:05;3.72;;;2.00;;
53521;SDS011;39398;48.382;9.802;2024-01-06T12:12:07;2.35;;;2.00;;
53521;SDS011;39398;48.382;9.802;2024-01-06T12:17:11;2.92;;;1.98;;
53521;SDS011;39398;48.382;9.802;2024-01-06T12:22:13;4.60;;;2.05;;
53521;SDS011;39398;48.382;9.802;2024-01-06T12:27:16;2.42;;;1.60;;
53521;SDS011;39398;48.382;9.802;2024-01-06T12:32:19;3.13;;;2.00;;
53521;SDS011;39398;48.382;9.802;2024-01-06T12:37:22;2.67;;;1.50;;
53521;SDS011;39398;48.382;9.802;2024-01-06T12:42:23;3.17;;;1.95;;
53521;SDS011;39398;48.382;9.802;2024-01-06T12:47:26;1.52;;;1.30;;
53521;SDS011;39398;48.382;9.802;2024-01-06T12:52:28;1.70;;;1.60;;
53521;SDS011;39398;48.382;9.802;2024-01-06T12:57:30;2.08;;;1.77;;
53521;SDS011;39398;48.382;9.802;2024-01-06T13:02:33;3.38;;;1.95;;
53521;SDS011;39398;48.382;9.802;2024-01-06T13:07:34;3.55;;;2.20;;
53521;SDS011;39398;48.382;9.802;2024-01-06T13:12:36;5.47;;;1.88;;
53521;SDS011;39398;48.382;9.802;2024-01-06T13:17:39;1.92;;;1.83;;
53521;SDS011;39398;48.382;9.802;2024-01-06T13:22:41;2.15;;;1.70;;
53521;SDS011;39398;48.382;9.802;2024-01-06T13:27:43;2.70;;;2.50;;
53521;SDS011;39398;48.382;9.802;2024-01-06T13:32:46;3.45;;;2.42;;
53521;SDS011;39398;48.382;9.802;2024-01-06T13:37:47;3.63;;;2.35;;
53521;SDS011;39398;48.382;9.802;2024-01-06T13:42:49;3.30;;;2.67;;
53521;SDS011;39398;48.382;9.802;2024-01-06T13:47:53;2.63;;;2.42;;
53521;SDS011;39398;48.382;9.802;2024-01-06T13:52:54;2.22;;;2.08;;
53521;SDS011;39398;48.382;9.802;2024-01-06T13:57:56;2.42;;;1.70;;
53521;SDS011;39398;48.382;9.802;2024-01-06T14:02:59;2.78;;;2.20;;
53521;SDS011;39398;48.382;9.802;2024-01-06T14:08:01;3.28;;;2.40;;
53521;SDS011;39398;48.382;9.802;2024-01-06T14:13:03;4.22;;;3.00;;
53521;SDS011;39398;48.382;9.802;2024-01-06T14:18:06;2.58;;;1.98;;
53521;SDS011;39398;48.382;9.802;2024-01-06T14:23:08;4.13;;;2.97;;
53521;SDS011;39398;48.382;9.802;2024-01-06T14:28:09;3.42;;;2.97;;
53521;SDS011;39398;48.382;9.802;2024-01-06T14:33:12;2.70;;;2.50;;
53521;SDS011;39398;48.382;9.802;2024-01-06T14:38:14;3.65;;;3.13;;
53521;SDS011;39398;48.382;9.802;2024-01-06T14:43:16;3.13;;;2.63;;
53521;SDS011;39398;48.382;9.802;2024-01-06T14:48:18;6.30;;;4.40;;
53521;SDS011;39398;48.382;9.802;2024-01-06T14:53:20;5.35;;;3.78;;
53521;SDS011;39398;48.382;9.802;2024-01-06T14:58:22;4.68;;;3.38;;
53521;SDS011;39398;48.382;9.802;2024-01-06T15:03:25;4.07;;;2.42;;
53521;SDS011;39398;48.382;9.802;2024-01-06T15:08:26;5.38;;;4.05;;
53521;SDS011;39398;48.382;9.802;2024-01-06T15:13:28;3.45;;;2.83;;
53521;SDS011;39398;48.382;9.802;2024-01-06T15:18:31;4.10;;;2.85;;
53521;SDS011;39398;48.382;9.802;2024-01-06T15:23:33;5.38;;;4.10;;
53521;SDS011;39398;48.382;9.802;2024-01-06T15:28:34;5.90;;;4.00;;
53521;SDS011;39398;48.382;9.802;2024-01-06T15:33:37;8.55;;;4.45;;
53521;SDS011;39398;48.382;9.802;2024-01-06T15:38:39;6.25;;;4.68;;
53521;SDS011;39398;48.382;9.802;2024-01-06T15:43:41;5.90;;;4.13;;
53521;SDS011;39398;48.382;9.802;2024-01-06T15:48:44;6.28;;;4.75;;
53521;SDS011;39398;48.382;9.802;2024-01-06T15:53:45;9.30;;;5.28;;
53521;SDS011;39398;48.382;9.802;2024-01-06T15:58:47;9.43;;;6.93;;
53521;SDS011;39398;48.382;9.802;2024-01-06T16:03:50;9.25;;;5.88;;
53521;SDS011;39398;48.382;9.802;2024-01-06T16:08:52;11.82;;;6.47;;
53521;SDS011;39398;48.382;9.802;2024-01-06T16:13:53;15.57;;;10.32;;
53521;SDS011;39398;48.382;9.802;2024-01-06T16:18:56;18.80;;;9.98;;
53521;SDS011;39398;48.382;9.802;2024-01-06T16:23:58;12.50;;;8.00;;
53521;SDS011;39398;48.382;9.802;2024-01-06T16:29:00;14.25;;;8.88;;
53521;SDS011;39398;48.382;9.802;2024-01-06T16:34:02;18.90;;;12.07;;
53521;SDS011;39398;48.382;9.802;2024-01-06T16:39:04;19.70;;;12.27;;
53521;SDS011;39398;48.382;9.802;2024-01-06T16:44:06;20.48;;;12.55;;
53521;SDS011;39398;48.382;9.802;2024-01-06T16:49:09;20.90;;;12.70;;
53521;SDS011;39398;48.382;9.802;2024-01-06T16:54:10;17.55;;;10.55;;
53521;SDS011;39398;48.382;9.802;2024-01-06T16:59:12;11.77;;;8.70;;
53521;SDS011;39398;48.382;9.802;2024-01-06T17:04:15;15.65;;;10.00;;
53521;SDS011;39398;48.382;9.802;2024-01-06T17:09:17;8.02;;;4.85;;
53521;SDS011;39398;48.382;9.802;2024-01-06T17:14:18;15.98;;;10.15;;
53521;SDS011;39398;48.382;9.802;2024-01-06T17:19:21;15.88;;;9.10;;
53521;SDS011;39398;48.382;9.802;2024-01-06T17:24:23;16.25;;;10.00;;
53521;SDS011;39398;48.382;9.802;2024-01-06T17:29:25;18.45;;;9.38;;
53521;SDS011;39398;48.382;9.802;2024-01-06T17:34:28;19.85;;;12.38;;
53521;SDS011;39398;48.382;9.802;2024-01-06T17:39:30;18.05;;;10.43;;
53521;SDS011;39398;48.382;9.802;2024-01-06T17:44:32;12.32;;;7.43;;
53521;SDS011;39398;48.382;9.802;2024-01-06T17:49:35;11.50;;;5.80;;
53521;SDS011;39398;48.382;9.802;2024-01-06T17:54:36;7.57;;;3.92;;
53521;SDS011;39398;48.382;9.802;2024-01-06T17:59:38;10.25;;;6.40;;
53521;SDS011;39398;48.382;9.802;2024-01-06T18:04:41;13.25;;;8.27;;
53521;SDS011;39398;48.382;9.802;2024-01-06T18:09:42;12.90;;;8.27;;
53521;SDS011;39398;48.382;9.802;2024-01-06T18:14:44;11.25;;;5.70;;
53521;SDS011;39398;48.382;9.802;2024-01-06T18:19:47;15.48;;;8.43;;
53521;SDS011;39398;48.382;9.802;2024-01-06T18:24:49;16.67;;;8.80;;
53521;SDS011;39398;48.382;9.802;2024-01-06T18:29:50;14.57;;;7.90;;
53521;SDS011;39398;48.382;9.802;2024-01-06T18:34:53;20.15;;;9.63;;
53521;SDS011;39398;48.382;9.802;2024-01-06T18:39:55;17.70;;;9.82;;
53521;SDS011;39398;48.382;9.802;2024-01-06T18:45:03;13.25;;;7.03;;
53521;SDS011;39398;48.382;9.802;2024-01-06T18:50:07;13.55;;;7.00;;
53521;SDS011;39398;48.382;9.802;2024-01-06T18:55:09;16.33;;;9.32;;
53521;SDS011;39398;48.382;9.802;2024-01-06T19:00:11;17.63;;;10.30;;
53521;SDS011;39398;48.382;9.802;2024-01-06T19:05:15;14.18;;;7.57;;
53521;SDS011;39398;48.382;9.802;2024-01-06T19:10:17;19.17;;;9.70;;
53521;SDS011;39398;48.382;9.802;2024-01-06T19:15:18;22.15;;;10.13;;
53521;SDS011;39398;48.382;9.802;2024-01-06T19:20:22;18.73;;;9.85;;
53521;SDS011;39398;48.382;9.802;2024-01-06T19:25:23;14.45;;;8.10;;
53521;SDS011;39398;48.382;9.802;2024-01-06T19:30:25;18.38;;;9.27;;
53521;SDS011;39398;48.382;9.802;2024-01-06T19:35:28;15.73;;;8.68;;
53521;SDS011;39398;48.382;9.802;2024-01-06T19:40:30;17.15;;;9.95;;
53521;SDS011;39398;48.382;9.802;2024-01-06T19:45:31;20.70;;;9.75;;
53521;SDS011;39398;48.382;9.802;2024-01-06T19:50:34;15.60;;;8.40;;
53521;SDS011;39398;48.382;9.802;2024-01-06T19:55:36;18.30;;;9.35;;
53521;SDS011;39398;48.382;9.802;2024-01-06T20:00:38;16.60;;;7.82;;
53521;SDS011;39398;48.382;9.802;2024-01-06T20:05:41;17.65;;;8.95;;
53521;SDS011;39398;48.382;9.802;2024-01-06T20:10:42;21.60;;;10.38;;
53521;SDS011;39398;48.382;9.802;2024-01-06T20:15:44;33.58;;;12.95;;
53521;SDS011;39398;48.382;9.802;2024-01-06T20:20:47;26.05;;;11.32;;
53521;SDS011;39398;48.382;9.802;2024-01-06T20:25:49;31.73;;;12.38;;
53521;SDS011;39398;48.382;9.802;2024-01-06T20:30:50;34.60;;;13.48;;
53521;SDS011;39398;48.382;9.802;2024-01-06T20:35:54;44.60;;;15.20;;
53521;SDS011;39398;48.382;9.802;2024-01-06T20:40:55;61.60;;;16.30;;
53521;SDS011;39398;48.382;9.802;2024-01-06T20:45:57;14.27;;;7.57;;
53521;SDS011;39398;48.382;9.802;2024-01-06T20:51:00;26.73;;;12.48;;
53521;SDS011;39398;48.382;9.802;2024-01-06T20:56:01;31.27;;;12.02;;
53521;SDS011;39398;48.382;9.802;2024-01-06T21:01:03;37.63;;;13.07;;
53521;SDS011;39398;48.382;9.802;2024-01-06T21:06:06;29.90;;;13.35;;
53521;SDS011;39398;48.382;9.802;2024-01-06T21:11:08;17.48;;;7.25;;
53521;SDS011;39398;48.382;9.802;2024-01-06T21:16:10;14.77;;;8.45;;
53521;SDS011;39398;48.382;9.802;2024-01-06T21:21:13;21.95;;;10.15;;
53521;SDS011;39398;48.382;9.802;2024-01-06T21:26:15;35.85;;;15.15;;
53521;SDS011;39398;48.382;9.802;2024-01-06T21:31:17;19.95;;;8.68;;
53521;SDS011;39398;48.382;9.802;2024-01-06T21:36:20;15.40;;;8.77;;
53521;SDS011;39398;48.382;9.802;2024-01-06T21:41:22;34.35;;;16.80;;
53521;SDS011;39398;48.382;9.802;2024-01-06T21:46:24;17.35;;;8.38;;
53521;SDS011;39398;48.382;9.802;2024-01-06T21:51:26;17.83;;;7.80;;
53521;SDS011;39398;48.382;9.802;2024-01-06T21:56:28;23.90;;;11.32;;
53521;SDS011;39398;48.382;9.802;2024-01-06T22:01:30;16.33;;;8.63;;
53521;SDS011;39398;48.382;9.802;2024-01-06T22:06:33;20.35;;;10.27;;
53521;SDS011;39398;48.382;9.802;2024-01-06T22:11:36;19.05;;;9.38;;
53521;SDS011;39398;48.382;9.802;2024-01-06T22:16:37;20.52;;;9.35;;
53521;SDS011;39398;48.382;9.802;2024-01-06T22:21:40;19.75;;;10.93;;
53521;SDS011;39398;48.382;9.802;2024-01-06T22:26:46;19.23;;;10.43;;
53521;SDS011;39398;48.382;9.802;2024-01-06T22:31:48;24.77;;;14.60;;
53521;SDS011;39398;48.382;9.802;2024-01-06T22:36:51;22.48;;;13.73;;
53521;SDS011;39398;48.382;9.802;2024-01-06T22:41:53;18.35;;;11.10;;
53521;SDS011;39398;48.382;9.802;2024-01-06T22:46:54;31.80;;;16.02;;
53521;SDS011;39398;48.382;9.802;2024-01-06T22:51:57;18.67;;;10.10;;
53521;SDS011;39398;48.382;9.802;2024-01-06T22:56:59;23.15;;;12.93;;
53521;SDS011;39398;48.382;9.802;2024-01-06T23:02:01;24.40;;;13.20;;
53521;SDS011;39398;48.382;9.802;2024-01-06T23:07:05;21.15;;;9.68;;
53521;SDS011;39398;48.382;9.802;2024-01-06T23:12:07;19.50;;;9.35;;
53521;SDS011;39398;48.382;9.802;2024-01-06T23:17:08;36.13;;;16.73;;
53521;SDS011;39398;48.382;9.802;2024-01-06T23:22:11;13.07;;;7.15;;
53521;SDS011;39398;48.382;9.802;2024-01-06T23:27:13;15.10;;;7.05;;
53521;SDS011;39398;48.382;9.802;2024-01-06T23:32:14;33.17;;;13.63;;
53521;SDS011;39398;48.382;9.802;2024-01-06T23:37:17;26.60;;;11.60;;
53521;SDS011;39398;48.382;9.802;2024-01-06T23:42:19;72.90;;;17.60;;
53521;SDS011;39398;48.382;9.802;2024-01-06T23:47:21;30.20;;;11.60;;
53521;SDS011;39398;48.382;9.802;2024-01-06T23:52:24;94.60;;;21.90;;
53521;SDS011;39398;48.382;9.802;2024-01-06T23:57:27;58.15;;;16.30;;
